SAS27A ENKB-ENBR
Flight info
| Callsign | SAS27A |
|---|---|
| Flight time | 0h 39m |
| Altitude | 28000 |
| Route | TUTOP DCT NIDGI |
| Aircraft | A320/M-SDE3FGHIRWY/LB1 |
Departure
| Time | 2026-04-29 16:39 |
|---|---|
| Airport | Kristiansund Airport, Kvernberget (ENKB) |
Arrival
| Time | 2026-04-29 17:18 |
|---|---|
| Airport | Bergen Airport, Flesland (ENBR) |
| Time | Latitude | Longitude | Altitude | Speed | Heading |
|---|---|---|---|---|---|
| 2026-04-29 16:39 | 63.08763 | 7.66691 | 4341 ft | 203 kts | 250° |
| 2026-04-29 16:39 | 63.08277 | 7.63558 | 4748 ft | 228 kts | 251° |
| 2026-04-29 16:39 | 63.07738 | 7.60077 | 5318 ft | 248 kts | 251° |
| 2026-04-29 16:39 | 63.07175 | 7.56411 | 6197 ft | 255 kts | 253° |
| 2026-04-29 16:40 | 63.06600 | 7.52675 | 7116 ft | 260 kts | 254° |
| 2026-04-29 16:40 | 63.05872 | 7.48972 | 7978 ft | 269 kts | 241° |
| 2026-04-29 16:40 | 63.04641 | 7.45785 | 8847 ft | 279 kts | 225° |
| 2026-04-29 16:40 | 63.03174 | 7.42928 | 9722 ft | 284 kts | 225° |
| 2026-04-29 16:41 | 63.01714 | 7.40113 | 10920 ft | 269 kts | 226° |
| 2026-04-29 16:41 | 63.00357 | 7.37514 | 12230 ft | 251 kts | 227° |
| 2026-04-29 16:41 | 62.99053 | 7.34999 | 13145 ft | 249 kts | 227° |
| 2026-04-29 16:41 | 62.97750 | 7.32461 | 13918 ft | 252 kts | 228° |
| 2026-04-29 16:42 | 62.96434 | 7.29888 | 14612 ft | 255 kts | 228° |
| 2026-04-29 16:42 | 62.95101 | 7.27285 | 15297 ft | 258 kts | 228° |
| 2026-04-29 16:42 | 62.93767 | 7.24693 | 15948 ft | 260 kts | 228° |
| 2026-04-29 16:42 | 62.92389 | 7.22026 | 16648 ft | 262 kts | 228° |
| 2026-04-29 16:43 | 62.91032 | 7.19408 | 17337 ft | 264 kts | 228° |
| 2026-04-29 16:43 | 62.89647 | 7.16741 | 17993 ft | 266 kts | 228° |
| 2026-04-29 16:43 | 62.88250 | 7.14059 | 18642 ft | 268 kts | 228° |
| 2026-04-29 16:43 | 62.86838 | 7.11346 | 19215 ft | 271 kts | 228° |
| 2026-04-29 16:44 | 62.85413 | 7.08612 | 19768 ft | 274 kts | 228° |
| 2026-04-29 16:44 | 62.83968 | 7.05841 | 20345 ft | 277 kts | 228° |
| 2026-04-29 16:44 | 62.82509 | 7.03043 | 20897 ft | 280 kts | 228° |
| 2026-04-29 16:44 | 62.81033 | 7.00216 | 21424 ft | 284 kts | 228° |
| 2026-04-29 16:45 | 62.79536 | 6.97354 | 21942 ft | 288 kts | 228° |
| 2026-04-29 16:45 | 62.78021 | 6.94464 | 22471 ft | 291 kts | 228° |
| 2026-04-29 16:45 | 62.76483 | 6.91536 | 22973 ft | 295 kts | 228° |
| 2026-04-29 16:45 | 62.74926 | 6.88575 | 23482 ft | 298 kts | 228° |
| 2026-04-29 16:46 | 62.71969 | 6.82962 | 24377 ft | 305 kts | 228° |
| 2026-04-29 16:46 | 62.68737 | 6.76863 | 25237 ft | 311 kts | 227° |
| 2026-04-29 16:46 | 62.65467 | 6.70697 | 25998 ft | 316 kts | 227° |
| 2026-04-29 16:46 | 62.62168 | 6.64273 | 26791 ft | 321 kts | 229° |
| 2026-04-29 16:47 | 62.60130 | 6.60217 | 27277 ft | 324 kts | 229° |
| 2026-04-29 16:47 | 62.58457 | 6.56892 | 27684 ft | 327 kts | 229° |
| 2026-04-29 16:47 | 62.56765 | 6.53548 | 28081 ft | 330 kts | 229° |
| 2026-04-29 16:47 | 62.55050 | 6.50178 | 28411 ft | 337 kts | 229° |
| 2026-04-29 16:48 | 62.53277 | 6.46698 | 28456 ft | 351 kts | 228° |
| 2026-04-29 16:48 | 62.51442 | 6.43102 | 28469 ft | 367 kts | 228° |
| 2026-04-29 16:48 | 62.49506 | 6.39314 | 28460 ft | 383 kts | 227° |
| 2026-04-29 16:48 | 62.47476 | 6.35355 | 28464 ft | 399 kts | 227° |
| 2026-04-29 16:49 | 62.45364 | 6.31260 | 28460 ft | 414 kts | 227° |
| 2026-04-29 16:49 | 62.43200 | 6.27085 | 28468 ft | 428 kts | 226° |
| 2026-04-29 16:49 | 62.40940 | 6.22745 | 28462 ft | 441 kts | 226° |
| 2026-04-29 16:49 | 62.38617 | 6.18298 | 28459 ft | 449 kts | 226° |
| 2026-04-29 16:50 | 62.33918 | 6.09324 | 28462 ft | 452 kts | 226° |
| 2026-04-29 16:50 | 62.29232 | 6.00366 | 28465 ft | 453 kts | 226° |
| 2026-04-29 16:51 | 62.24513 | 5.91359 | 28464 ft | 453 kts | 226° |
| 2026-04-29 16:51 | 62.19788 | 5.82395 | 28459 ft | 453 kts | 225° |
| 2026-04-29 16:52 | 62.15052 | 5.73486 | 28469 ft | 453 kts | 225° |
| 2026-04-29 16:52 | 62.10344 | 5.64648 | 28462 ft | 453 kts | 225° |
| 2026-04-29 16:53 | 62.05595 | 5.55761 | 28472 ft | 453 kts | 225° |
| 2026-04-29 16:53 | 62.00729 | 5.47286 | 28463 ft | 457 kts | 216° |
| 2026-04-29 16:54 | 61.94878 | 5.41710 | 28474 ft | 464 kts | 200° |
| 2026-04-29 16:54 | 61.88730 | 5.37437 | 28481 ft | 464 kts | 201° |
| 2026-04-29 16:55 | 61.82627 | 5.33122 | 28503 ft | 464 kts | 201° |
| 2026-04-29 16:55 | 61.76501 | 5.28817 | 28513 ft | 464 kts | 201° |
| 2026-04-29 16:56 | 61.70372 | 5.24566 | 28525 ft | 463 kts | 201° |
| 2026-04-29 16:56 | 61.64243 | 5.20338 | 28523 ft | 462 kts | 201° |
| 2026-04-29 16:57 | 61.58128 | 5.16125 | 28522 ft | 462 kts | 201° |
| 2026-04-29 16:57 | 61.52046 | 5.11949 | 28516 ft | 462 kts | 201° |
| 2026-04-29 16:58 | 61.45927 | 5.07769 | 28524 ft | 462 kts | 200° |
| 2026-04-29 16:58 | 61.39820 | 5.03609 | 28512 ft | 461 kts | 200° |
| 2026-04-29 16:59 | 61.33721 | 4.99471 | 28520 ft | 461 kts | 200° |
| 2026-04-29 16:59 | 61.27615 | 4.95354 | 28501 ft | 461 kts | 200° |
| 2026-04-29 17:00 | 61.21514 | 4.91246 | 28510 ft | 461 kts | 200° |
| 2026-04-29 17:00 | 61.15438 | 4.87182 | 28263 ft | 462 kts | 200° |
| 2026-04-29 17:01 | 61.12377 | 4.85141 | 27990 ft | 462 kts | 200° |
| 2026-04-29 17:01 | 61.09320 | 4.83105 | 27730 ft | 460 kts | 200° |
| 2026-04-29 17:01 | 61.06232 | 4.81421 | 27154 ft | 458 kts | 192° |
| 2026-04-29 17:01 | 61.03077 | 4.80736 | 26504 ft | 455 kts | 182° |
| 2026-04-29 17:02 | 60.99923 | 4.80586 | 25861 ft | 452 kts | 182° |
| 2026-04-29 17:02 | 60.96788 | 4.80429 | 25210 ft | 449 kts | 182° |
| 2026-04-29 17:02 | 60.93676 | 4.80283 | 24493 ft | 446 kts | 180° |
| 2026-04-29 17:02 | 60.91608 | 4.80646 | 23682 ft | 451 kts | 170° |
| 2026-04-29 17:03 | 60.88549 | 4.81887 | 22378 ft | 444 kts | 168° |
| 2026-04-29 17:03 | 60.84589 | 4.83595 | 20752 ft | 434 kts | 168° |
| 2026-04-29 17:03 | 60.81659 | 4.84884 | 19617 ft | 426 kts | 168° |
| 2026-04-29 17:03 | 60.79744 | 4.85725 | 18949 ft | 421 kts | 168° |
| 2026-04-29 17:04 | 60.76912 | 4.86956 | 18279 ft | 410 kts | 168° |
| 2026-04-29 17:04 | 60.74154 | 4.88135 | 17582 ft | 400 kts | 168° |
| 2026-04-29 17:04 | 60.71443 | 4.89278 | 16617 ft | 393 kts | 168° |
| 2026-04-29 17:04 | 60.68797 | 4.90388 | 16031 ft | 386 kts | 168° |
| 2026-04-29 17:05 | 60.66169 | 4.91493 | 15416 ft | 383 kts | 168° |
| 2026-04-29 17:05 | 60.63601 | 4.92575 | 14839 ft | 379 kts | 168° |
| 2026-04-29 17:05 | 60.61024 | 4.93658 | 14228 ft | 375 kts | 168° |
| 2026-04-29 17:05 | 60.58486 | 4.94722 | 13594 ft | 371 kts | 168° |
| 2026-04-29 17:06 | 60.55964 | 4.95779 | 12802 ft | 366 kts | 168° |
| 2026-04-29 17:06 | 60.53485 | 4.96814 | 11947 ft | 361 kts | 168° |
| 2026-04-29 17:06 | 60.51063 | 4.97826 | 11119 ft | 355 kts | 168° |
| 2026-04-29 17:06 | 60.48672 | 4.98823 | 10325 ft | 345 kts | 168° |
| 2026-04-29 17:07 | 60.46402 | 4.99768 | 10134 ft | 319 kts | 168° |
| 2026-04-29 17:07 | 60.44310 | 5.00637 | 9899 ft | 298 kts | 168° |
| 2026-04-29 17:07 | 60.42304 | 5.01471 | 9360 ft | 291 kts | 168° |
| 2026-04-29 17:07 | 60.40360 | 5.02283 | 8750 ft | 288 kts | 168° |
| 2026-04-29 17:08 | 60.38393 | 5.03101 | 8133 ft | 286 kts | 168° |
| 2026-04-29 17:08 | 60.36460 | 5.03904 | 7577 ft | 282 kts | 168° |
| 2026-04-29 17:08 | 60.34544 | 5.04695 | 7019 ft | 279 kts | 168° |
| 2026-04-29 17:08 | 60.32653 | 5.05473 | 6436 ft | 276 kts | 168° |
| 2026-04-29 17:09 | 60.30781 | 5.06244 | 5886 ft | 272 kts | 168° |
| 2026-04-29 17:09 | 60.28958 | 5.06993 | 5349 ft | 267 kts | 168° |
| 2026-04-29 17:09 | 60.27142 | 5.07737 | 4799 ft | 263 kts | 168° |
| 2026-04-29 17:09 | 60.25359 | 5.08468 | 4237 ft | 259 kts | 168° |
| 2026-04-29 17:10 | 60.23606 | 5.09188 | 4025 ft | 256 kts | 168° |
| 2026-04-29 17:10 | 60.21916 | 5.09884 | 4001 ft | 244 kts | 168° |
| 2026-04-29 17:10 | 60.20294 | 5.10550 | 4010 ft | 230 kts | 168° |
| 2026-04-29 17:10 | 60.18770 | 5.11175 | 4009 ft | 216 kts | 168° |
| 2026-04-29 17:11 | 60.17329 | 5.11765 | 4011 ft | 208 kts | 167° |
| 2026-04-29 17:11 | 60.15911 | 5.12348 | 4009 ft | 207 kts | 167° |
| 2026-04-29 17:11 | 60.14501 | 5.12927 | 4011 ft | 206 kts | 167° |
| 2026-04-29 17:11 | 60.13130 | 5.13486 | 4021 ft | 198 kts | 167° |
| 2026-04-29 17:12 | 60.11806 | 5.14071 | 4010 ft | 196 kts | 160° |
| 2026-04-29 17:12 | 60.10623 | 5.15391 | 4017 ft | 195 kts | 138° |
| 2026-04-29 17:12 | 60.09779 | 5.17497 | 4013 ft | 195 kts | 116° |
| 2026-04-29 17:12 | 60.09463 | 5.19171 | 4014 ft | 194 kts | 103° |
| 2026-04-29 17:13 | 60.09516 | 5.22750 | 3800 ft | 192 kts | 72° |
| 2026-04-29 17:13 | 60.10153 | 5.25033 | 3743 ft | 187 kts | 49° |
| 2026-04-29 17:13 | 60.11174 | 5.26638 | 3626 ft | 188 kts | 26° |
| 2026-04-29 17:13 | 60.12434 | 5.27318 | 3447 ft | 189 kts | 2° |
| 2026-04-29 17:14 | 60.13696 | 5.27043 | 3250 ft | 179 kts | 351° |
| 2026-04-29 17:14 | 60.14896 | 5.26640 | 2999 ft | 170 kts | 351° |
| 2026-04-29 17:14 | 60.16052 | 5.26254 | 2760 ft | 166 kts | 351° |
| 2026-04-29 17:14 | 60.17188 | 5.25876 | 2527 ft | 165 kts | 351° |
| 2026-04-29 17:15 | 60.18313 | 5.25501 | 2308 ft | 160 kts | 350° |
| 2026-04-29 17:15 | 60.19338 | 5.25160 | 2082 ft | 144 kts | 350° |
| 2026-04-29 17:15 | 60.20303 | 5.24838 | 1887 ft | 138 kts | 350° |
| 2026-04-29 17:15 | 60.21236 | 5.24526 | 1705 ft | 134 kts | 349° |
| 2026-04-29 17:16 | 60.22154 | 5.24220 | 1520 ft | 133 kts | 349° |
| 2026-04-29 17:16 | 60.23063 | 5.23916 | 1333 ft | 131 kts | 349° |
| 2026-04-29 17:16 | 60.23646 | 5.23721 | 1199 ft | 130 kts | 349° |
| 2026-04-29 17:16 | 60.24350 | 5.23486 | 1049 ft | 130 kts | 348° |
| 2026-04-29 17:17 | 60.25233 | 5.23191 | 839 ft | 128 kts | 350° |
| 2026-04-29 17:17 | 60.26108 | 5.22897 | 657 ft | 127 kts | 349° |
| 2026-04-29 17:17 | 60.26977 | 5.22606 | 465 ft | 127 kts | 348° |
| 2026-04-29 17:17 | 60.27849 | 5.22314 | 292 ft | 126 kts | 348° |
| 2026-04-29 17:18 | 60.28704 | 5.22026 | 164 ft | 117 kts | 351° |
| 2026-04-29 17:18 | 60.29316 | 5.21821 | 156 ft | 57 kts | 350° |
| 2026-04-29 17:18 | 60.29612 | 5.21724 | 147 ft | 30 kts | 351° |
| 2026-04-29 17:18 | 60.29711 | 5.21798 | 146 ft | 15 kts | 74° |
| 2026-04-29 17:19 | 60.29721 | 5.21923 | 149 ft | 0 kts | 82° |
| 2026-04-29 17:19 | 60.29722 | 5.21940 | 148 ft | 5 kts | 88° |
| 2026-04-29 17:19 | 60.29687 | 5.22019 | 150 ft | 11 kts | 165° |
| 2026-04-29 17:20 | 60.29596 | 5.22050 | 153 ft | 14 kts | 171° |
| 2026-04-29 17:20 | 60.29493 | 5.22085 | 157 ft | 17 kts | 170° |
| 2026-04-29 17:20 | 60.29354 | 5.22133 | 162 ft | 23 kts | 171° |
| 2026-04-29 17:20 | 60.29194 | 5.22188 | 170 ft | 23 kts | 169° |
| 2026-04-29 17:21 | 60.29033 | 5.22240 | 174 ft | 25 kts | 171° |
| 2026-04-29 17:21 | 60.28862 | 5.22301 | 171 ft | 23 kts | 169° |
| 2026-04-29 17:21 | 60.28729 | 5.22343 | 169 ft | 15 kts | 171° |
| 2026-04-29 17:21 | 60.28678 | 5.22468 | 171 ft | 9 kts | 111° |
| 2026-04-29 17:22 | 60.28673 | 5.22607 | 172 ft | 12 kts | 83° |
| 2026-04-29 17:22 | 60.28691 | 5.22786 | 173 ft | 14 kts | 79° |
| 2026-04-29 17:22 | 60.28700 | 5.22905 | 176 ft | 4 kts | 82° |
| 2026-04-29 17:22 | 60.28701 | 5.22914 | 176 ft | 0 kts | 82° |